Asiatic Wave — 9V8790 — position and weather

sailwx.info

Track history (hours):
 
Tides and Currents Weather Stations Pressure Air Temp Water Temp Dewpoint Dewpoint Depression Visibility Wind Speed Wind Dir Waves Ship Positions

Asiatic Wave

Last reported at 2015-Jul-04 16:27 UTC. Time now 2015-Jul-04 17:00 UTC.
Position N 34°40' E 135°14'.

Length 150 m; draft 6.9 m.

Type: Ship (hazmat cat C). MMSI: 564211000.

Date/timePositionNaut miles runAvg speedWind from/ knotsBaromVisibWave heightAir tempDewpointWater temp
2015-Jul-04 16:27N 34°40' E 135°14'0 0.0
2015-Jul-04 15:33N 34°40' E 135°14'0 0.1
2015-Jul-04 14:33N 34°40' E 135°14'0 0.1
2015-Jul-04 13:29N 34°40' E 135°14'0 0.1
2015-Jul-04 12:29N 34°40' E 135°14'3 3.7
2015-Jul-04 11:33N 34°38' E 135°18'7 6.4
2015-Jul-04 10:31N 34°39' E 135°26'0 0.0
2015-Jul-04 09:19N 34°39' E 135°26'0 0.0
2015-Jul-04 08:32N 34°39' E 135°26'0 0.0
2015-Jul-04 07:31N 34°39' E 135°26'0 0.0
2015-Jul-04 06:18N 34°39' E 135°26'0 0.0
2015-Jul-04 05:30N 34°39' E 135°26'0 0.0
2015-Jul-04 04:24N 34°39' E 135°26'0 0.0
2015-Jul-04 03:29N 34°39' E 135°26'0 0.1
2015-Jul-04 02:29N 34°39' E 135°26'0 0.0
2015-Jul-04 01:28N 34°39' E 135°26'0 0.0
2015-Jul-04 00:26N 34°39' E 135°26'0 0.0
2015-Jul-03 23:31N 34°39' E 135°26'0 0.4
2015-Jul-03 22:33N 34°39' E 135°25'1010.3
2015-Jul-03 21:33N 34°31' E 135°17'1616.0
2015-Jul-03 20:33N 34°21' E 135°02'1313.4
2015-Jul-03 19:33N 34°08' E 134°59'53913.1
2015-Jul-02 02:26N 31°03' E 124°58'1416.0
2015-Jul-02 01:32N 31°03' E 124°41'1515.7
2015-Jul-02 00:33N 31°04' E 124°23'1715.5
2015-Jul-01 23:27N 31°04' E 124°03'1415.5
2015-Jul-01 22:33N 31°04' E 123°47'1615.7
2015-Jul-01 21:33N 31°04' E 123°29'1716.6
2015-Jul-01 20:33N 31°05' E 123°10'1717.1
2015-Jul-01 19:33N 31°06' E 122°50'1615.6
2015-Jul-01 18:33N 31°05' E 122°31'1414.0
2015-Jul-01 17:33N 31°08' E 122°15'1514.7
2015-Jul-01 16:33N 31°15' E 122°00'1312.7
2015-Jul-01 15:33N 31°18' E 121°46'9 9.5
2015-Jul-01 14:33N 31°22' E 121°36'0 0.0
2015-Jul-01 13:33N 31°22' E 121°36'0 0.0
2015-Jul-01 12:33N 31°22' E 121°36'0 0.1
2015-Jul-01 11:32N 31°22' E 121°36'0 0.0
2015-Jul-01 10:31N 31°22' E 121°36'0 0.1
2015-Jul-01 09:27N 31°22' E 121°36'0 0.0
2015-Jul-01 08:34N 31°22' E 121°36'0 0.0
2015-Jul-01 07:33N 31°22' E 121°36'0 0.1
2015-Jul-01 06:33N 31°22' E 121°36'0 0.0
2015-Jul-01 05:28N 31°22' E 121°36'0 0.1
2015-Jul-01 04:31N 31°22' E 121°36'0 0.1
2015-Jul-01 03:33N 31°22' E 121°36'0 0.1
2015-Jul-01 02:32N 31°22' E 121°36'0 0.0
2015-Jul-01 01:31N 31°22' E 121°36'0 0.0
2015-Jul-01 00:31N 31°22' E 121°36'0 0.0
2015-Jun-30 23:33N 31°22' E 121°36'0 0.1
2015-Jun-30 22:32N 31°22' E 121°36'0 0.1
2015-Jun-30 21:32N 31°22' E 121°36'0 0.0
2015-Jun-30 20:31N 31°22' E 121°36'0 0.1
2015-Jun-30 19:33N 31°22' E 121°36'0 0.1
2015-Jun-30 18:33N 31°22' E 121°36'0 0.0
2015-Jun-30 17:32N 31°22' E 121°36'0 0.0
2015-Jun-30 16:28N 31°22' E 121°36'0 0.1
2015-Jun-30 15:31N 31°22' E 121°36'0 0.1
2015-Jun-30 14:33N 31°22' E 121°36'0 0.1
2015-Jun-30 13:33N 31°22' E 121°36'0 0.1
2015-Jun-30 12:33N 31°22' E 121°36'6 6.0
2015-Jun-30 11:33N 31°20' E 121°42'1010.1
2015-Jun-30 10:33N 31°16' E 121°53'1111.1
2015-Jun-30 09:33N 31°14' E 122°06'1111.4
2015-Jun-30 08:33N 31°07' E 122°17'1211.9
2015-Jun-30 07:33N 31°07' E 122°31'14 1.4
2015-Jun-29 21:20N 31°02' E 122°46'0 0.1
2015-Jun-29 20:32N 31°02' E 122°46'  
2015-Jun-26 18:17N 34°52' E 139°18'1317.8
2015-Jun-26 17:33N 35°00' E 139°30'1717.3
2015-Jun-26 16:33N 35°12' E 139°46'1312.6
2015-Jun-26 15:33N 35°24' E 139°42'3 2.9
2015-Jun-26 14:33N 35°27' E 139°41'0 0.0
2015-Jun-26 13:33N 35°27' E 139°41'0 0.0
2015-Jun-26 12:30N 35°27' E 139°41'0 0.0
2015-Jun-26 11:32N 35°27' E 139°41'0 0.0
2015-Jun-26 10:32N 35°27' E 139°41'3 2.6
2015-Jun-26 09:33N 35°26' E 139°44'8 8.2
2015-Jun-26 08:33N 35°32' E 139°51'5 5.1
2015-Jun-26 07:33N 35°36' E 139°48'0 0.1
2015-Jun-26 06:33N 35°36' E 139°48'0 0.0
2015-Jun-26 05:32N 35°36' E 139°48'0 0.0
2015-Jun-26 04:32N 35°36' E 139°48'0 0.0
2015-Jun-26 03:31N 35°36' E 139°48'0 0.0
2015-Jun-26 02:31N 35°36' E 139°48'0 0.0
2015-Jun-26 01:28N 35°36' E 139°48'0 0.0
2015-Jun-26 00:33N 35°36' E 139°48'0 0.0
2015-Jun-25 23:24N 35°36' E 139°48'1 1.2
2015-Jun-25 22:33N 35°35' E 139°48'2 2.4
2015-Jun-25 21:31N 35°34' E 139°50'0 0.0
2015-Jun-25 20:31N 35°34' E 139°50'0 0.0
2015-Jun-25 19:28N 35°34' E 139°50'0 0.3
2015-Jun-25 18:33N 35°34' E 139°51'7 6.6
2015-Jun-25 17:33N 35°27' E 139°50'1010.4
2015-Jun-25 16:33N 35°18' E 139°45'9 8.7
2015-Jun-25 15:33N 35°09' E 139°47'1313.5
2015-Jun-25 14:33N 34°60' E 139°35'  
Track history (hours):
 
Tides and Currents Weather Stations Pressure Air Temp Water Temp Dewpoint Dewpoint Depression Visibility Wind Speed Wind Dir Waves Ship Positions

Asiatic Wave

Last reported at 2015-Jul-04 16:27 UTC. Time now 2015-Jul-04 17:00 UTC.
Position N 34°40' E 135°14'.

Length 150 m; draft 6.9 m.

Type: Ship (hazmat cat C). MMSI: 564211000.

Date/timePositionNaut miles runAvg speedWind from/ knotsBaromVisibWave heightAir tempDewpointWater temp
2015-Jul-04 16:27N 34°40' E 135°14'0 0.0
2015-Jul-04 15:33N 34°40' E 135°14'0 0.1
2015-Jul-04 14:33N 34°40' E 135°14'0 0.1
2015-Jul-04 13:29N 34°40' E 135°14'0 0.1
2015-Jul-04 12:29N 34°40' E 135°14'3 3.7
2015-Jul-04 11:33N 34°38' E 135°18'7 6.4
2015-Jul-04 10:31N 34°39' E 135°26'0 0.0
2015-Jul-04 09:19N 34°39' E 135°26'0 0.0
2015-Jul-04 08:32N 34°39' E 135°26'0 0.0
2015-Jul-04 07:31N 34°39' E 135°26'0 0.0
2015-Jul-04 06:18N 34°39' E 135°26'0 0.0
2015-Jul-04 05:30N 34°39' E 135°26'0 0.0
2015-Jul-04 04:24N 34°39' E 135°26'0 0.0
2015-Jul-04 03:29N 34°39' E 135°26'0 0.1
2015-Jul-04 02:29N 34°39' E 135°26'0 0.0
2015-Jul-04 01:28N 34°39' E 135°26'0 0.0
2015-Jul-04 00:26N 34°39' E 135°26'0 0.0
2015-Jul-03 23:31N 34°39' E 135°26'0 0.4
2015-Jul-03 22:33N 34°39' E 135°25'1010.3
2015-Jul-03 21:33N 34°31' E 135°17'1616.0
2015-Jul-03 20:33N 34°21' E 135°02'1313.4
2015-Jul-03 19:33N 34°08' E 134°59'53913.1
2015-Jul-02 02:26N 31°03' E 124°58'1416.0
2015-Jul-02 01:32N 31°03' E 124°41'1515.7
2015-Jul-02 00:33N 31°04' E 124°23'1715.5
2015-Jul-01 23:27N 31°04' E 124°03'1415.5
2015-Jul-01 22:33N 31°04' E 123°47'1615.7
2015-Jul-01 21:33N 31°04' E 123°29'1716.6
2015-Jul-01 20:33N 31°05' E 123°10'1717.1
2015-Jul-01 19:33N 31°06' E 122°50'1615.6
2015-Jul-01 18:33N 31°05' E 122°31'1414.0
2015-Jul-01 17:33N 31°08' E 122°15'1514.7
2015-Jul-01 16:33N 31°15' E 122°00'1312.7
2015-Jul-01 15:33N 31°18' E 121°46'9 9.5
2015-Jul-01 14:33N 31°22' E 121°36'0 0.0
2015-Jul-01 13:33N 31°22' E 121°36'0 0.0
2015-Jul-01 12:33N 31°22' E 121°36'0 0.1
2015-Jul-01 11:32N 31°22' E 121°36'0 0.0
2015-Jul-01 10:31N 31°22' E 121°36'0 0.1
2015-Jul-01 09:27N 31°22' E 121°36'0 0.0
2015-Jul-01 08:34N 31°22' E 121°36'0 0.0
2015-Jul-01 07:33N 31°22' E 121°36'0 0.1
2015-Jul-01 06:33N 31°22' E 121°36'0 0.0
2015-Jul-01 05:28N 31°22' E 121°36'0 0.1
2015-Jul-01 04:31N 31°22' E 121°36'0 0.1
2015-Jul-01 03:33N 31°22' E 121°36'0 0.1
2015-Jul-01 02:32N 31°22' E 121°36'0 0.0
2015-Jul-01 01:31N 31°22' E 121°36'0 0.0
2015-Jul-01 00:31N 31°22' E 121°36'0 0.0
2015-Jun-30 23:33N 31°22' E 121°36'0 0.1
2015-Jun-30 22:32N 31°22' E 121°36'0 0.1
2015-Jun-30 21:32N 31°22' E 121°36'0 0.0
2015-Jun-30 20:31N 31°22' E 121°36'0 0.1
2015-Jun-30 19:33N 31°22' E 121°36'0 0.1
2015-Jun-30 18:33N 31°22' E 121°36'0 0.0
2015-Jun-30 17:32N 31°22' E 121°36'0 0.0
2015-Jun-30 16:28N 31°22' E 121°36'0 0.1
2015-Jun-30 15:31N 31°22' E 121°36'0 0.1
2015-Jun-30 14:33N 31°22' E 121°36'0 0.1
2015-Jun-30 13:33N 31°22' E 121°36'0 0.1
2015-Jun-30 12:33N 31°22' E 121°36'6 6.0
2015-Jun-30 11:33N 31°20' E 121°42'1010.1
2015-Jun-30 10:33N 31°16' E 121°53'1111.1
2015-Jun-30 09:33N 31°14' E 122°06'1111.4
2015-Jun-30 08:33N 31°07' E 122°17'1211.9
2015-Jun-30 07:33N 31°07' E 122°31'14 1.4
2015-Jun-29 21:20N 31°02' E 122°46'0 0.1
2015-Jun-29 20:32N 31°02' E 122°46'  
2015-Jun-26 18:17N 34°52' E 139°18'1317.8
2015-Jun-26 17:33N 35°00' E 139°30'1717.3
2015-Jun-26 16:33N 35°12' E 139°46'1312.6
2015-Jun-26 15:33N 35°24' E 139°42'3 2.9
2015-Jun-26 14:33N 35°27' E 139°41'0 0.0
2015-Jun-26 13:33N 35°27' E 139°41'0 0.0
2015-Jun-26 12:30N 35°27' E 139°41'0 0.0
2015-Jun-26 11:32N 35°27' E 139°41'0 0.0
2015-Jun-26 10:32N 35°27' E 139°41'3 2.6
2015-Jun-26 09:33N 35°26' E 139°44'8 8.2
2015-Jun-26 08:33N 35°32' E 139°51'5 5.1
2015-Jun-26 07:33N 35°36' E 139°48'0 0.1
2015-Jun-26 06:33N 35°36' E 139°48'0 0.0
2015-Jun-26 05:32N 35°36' E 139°48'0 0.0
2015-Jun-26 04:32N 35°36' E 139°48'0 0.0
2015-Jun-26 03:31N 35°36' E 139°48'0 0.0
2015-Jun-26 02:31N 35°36' E 139°48'0 0.0
2015-Jun-26 01:28N 35°36' E 139°48'0 0.0
2015-Jun-26 00:33N 35°36' E 139°48'0 0.0
2015-Jun-25 23:24N 35°36' E 139°48'1 1.2
2015-Jun-25 22:33N 35°35' E 139°48'2 2.4
2015-Jun-25 21:31N 35°34' E 139°50'0 0.0
2015-Jun-25 20:31N 35°34' E 139°50'0 0.0
2015-Jun-25 19:28N 35°34' E 139°50'0 0.3
2015-Jun-25 18:33N 35°34' E 139°51'7 6.6
2015-Jun-25 17:33N 35°27' E 139°50'1010.4
2015-Jun-25 16:33N 35°18' E 139°45'9 8.7
2015-Jun-25 15:33N 35°09' E 139°47'1313.5
2015-Jun-25 14:33N 34°60' E 139°35'  

Dump ship's entire track history